Rumbley, Maryland
Current Conditions -  °F | °C
As of 9:54 PM on Wednesday 22 Oct 2014 (Local Time) from KWAL Reporting Station
Overcast Overcast  
Wind Chill: 55°   Ceiling: 1800
Heat Index: 55°   Visibility: 10mi
Dew Point: 50°   Wind: 16mph
Humidity: 83%   Direction: 350°N
Pressure: 29.82"   Gusts: 26mph
Location:  38.0995°N, 75.7422°W
Report Text: KWAL 230154Z AUTO 35014G23KT 10SM OVC018 13/10 A2982 RMK AO2 PK WND 35027/0120 RAB35E49 SLP096 P0000 T01280100
Loading
Personal Weather Stations






























Interactive Weather Map
Tropical Storm Tracking
New forecast layout! Learn more

10-Day Weather Forecast

Advertisements
Track Severe Weather on mobile